Time;durP1;ratioP1;P1;durP2;ratioP2;P2;SDS_P1;SDS_P2;PMS_P1;PMS_P2;Temp;Humidity;BMP_temperature;BMP_pressure;BME280_temperature;BME280_humidity;BME280_pressure;Samples;Min_cycle;Max_cycle;Signal;HPM_P1;HPM_P2
2022/10/26 00:00:09;;;;;;;18.53;7.60;;;;;;;15.82;85.01;95158.41;5030914;28;20217;-77
2022/10/26 00:02:37;;;;;;;19.27;7.70;;;;;;;15.78;85.13;95159.94;5030757;28;20673;-79
2022/10/26 00:05:05;;;;;;;20.40;6.83;;;;;;;15.79;85.22;95160.72;5030621;28;20190;-78
2022/10/26 00:07:32;;;;;;;16.03;7.70;;;;;;;15.72;85.31;95160.88;5028244;28;20569;-78
2022/10/26 00:09:59;;;;;;;21.83;7.10;;;;;;;15.64;85.73;95150.75;5030842;28;20194;-78
2022/10/26 00:12:25;;;;;;;17.63;9.73;;;;;;;15.66;85.75;95155.78;5028243;28;20199;-78
2022/10/26 00:14:52;;;;;;;28.57;12.47;;;;;;;15.71;85.54;95154.03;5027990;28;20190;-78
2022/10/26 00:17:19;;;;;;;17.53;9.30;;;;;;;15.69;85.95;95160.56;5030943;28;20202;-78
2022/10/26 00:19:47;;;;;;;20.67;8.83;;;;;;;15.63;85.87;95162.28;5030558;28;20229;-78
2022/10/26 00:22:14;;;;;;;22.40;9.13;;;;;;;15.61;85.69;95155.69;5028369;28;20190;-78
2022/10/26 00:24:40;;;;;;;23.30;8.63;;;;;;;15.61;85.89;95151.22;5030368;28;20195;-78
2022/10/26 00:27:07;;;;;;;23.80;9.47;;;;;;;15.46;86.59;95147.53;5030417;28;20206;-77
2022/10/26 00:29:34;;;;;;;18.77;9.50;;;;;;;15.39;87.01;95157.38;5029872;28;20191;-78
2022/10/26 00:32:01;;;;;;;23.70;9.67;;;;;;;15.32;87.39;95160.91;5030282;28;20199;-77
2022/10/26 00:34:28;;;;;;;20.93;8.40;;;;;;;15.34;87.76;95168.56;5030541;28;20195;-77
2022/10/26 00:36:56;;;;;;;19.20;8.30;;;;;;;15.30;87.56;95164.81;5030033;28;20680;-78
2022/10/26 00:39:23;;;;;;;19.20;8.33;;;;;;;15.34;87.95;95166.72;5030587;28;20202;-77
2022/10/26 00:41:50;;;;;;;16.43;8.40;;;;;;;15.34;87.87;95164.13;5029917;28;20203;-77
2022/10/26 00:44:55;;;;;;;18.60;8.00;;;;;;;15.40;87.62;95156.34;5029612;28;20227;-77
2022/10/26 00:47:29;;;;;;;19.50;7.80;;;;;;;15.29;87.65;95158.00;5029402;28;20256;-77
2022/10/26 00:50:00;;;;;;;19.80;9.20;;;;;;;15.34;88.19;95166.72;5031022;28;20190;-78
2022/10/26 00:52:29;;;;;;;22.70;8.87;;;;;;;15.34;87.93;95158.06;5033981;28;20198;-78
2022/10/26 00:54:56;;;;;;;13.00;7.80;;;;;;;15.34;88.20;95144.97;5034083;28;20198;-78
2022/10/26 00:57:24;;;;;;;20.73;7.80;;;;;;;15.43;87.07;95150.63;5033913;28;20195;-78
2022/10/26 00:59:53;;;;;;;13.63;6.97;;;;;;;15.46;86.72;95152.78;5030287;28;20644;-79
2022/10/26 01:02:20;;;;;;;19.90;7.77;;;;;;;15.15;86.69;95102.47;5033628;28;20665;-78
2022/10/26 01:04:48;;;;;;;20.07;7.20;;;;;;;15.44;87.14;95141.75;5034323;28;20194;-78
2022/10/26 01:07:15;;;;;;;17.63;7.07;;;;;;;15.50;86.76;95140.84;5034542;28;20198;-78
2022/10/26 01:09:43;;;;;;;14.93;7.10;;;;;;;15.53;86.23;95149.00;5034086;28;20191;-78
2022/10/26 01:12:10;;;;;;;20.10;6.47;;;;;;;15.50;86.39;95144.22;5033693;28;20198;-77
2022/10/26 01:14:37;;;;;;;17.03;6.93;;;;;;;15.29;87.52;95137.03;5034072;28;20580;-77
2022/10/26 01:17:15;;;;;;;13.17;7.10;;;;;;;15.16;87.62;95132.06;5033930;28;20193;-79
2022/10/26 01:20:30;;;;;;;20.07;7.47;;;;;;;15.22;88.29;95133.75;5033496;28;20214;-79
2022/10/26 01:23:02;;;;;;;22.57;6.93;;;;;;;15.15;88.31;95135.75;5011989;28;20194;-77
2022/10/26 01:25:50;;;;;;;16.23;7.47;;;;;;;15.01;89.05;95142.25;5034319;28;20226;-78
2022/10/26 01:28:33;;;;;;;17.47;6.40;;;;;;;14.95;89.25;95140.59;5034126;28;20195;-77
2022/10/26 01:31:03;;;;;;;13.70;6.57;;;;;;;14.98;89.59;95140.91;5027095;28;20214;-78
2022/10/26 01:33:43;;;;;;;20.83;7.23;;;;;;;15.03;89.32;95146.25;5034284;28;20191;-79
2022/10/26 01:36:13;;;;;;;12.70;6.40;;;;;;;15.10;88.96;95146.91;5030250;28;20571;-78
2022/10/26 01:38:51;;;;;;;16.67;6.80;;;;;;;15.10;89.14;95133.00;5033866;28;20216;-78
2022/10/26 01:41:25;;;;;;;14.43;6.93;;;;;;;14.95;89.59;95127.50;5029306;28;20206;-79
2022/10/26 01:43:57;;;;;;;12.00;6.47;;;;;;;14.91;90.07;95131.59;5029469;28;20222;-79
2022/10/26 01:46:29;;;;;;;17.63;6.60;;;;;;;14.90;89.84;95119.53;5033895;28;20210;-78
2022/10/26 01:48:59;;;;;;;14.30;6.60;;;;;;;14.99;89.72;95129.41;5033578;28;20249;-77
2022/10/26 01:51:27;;;;;;;15.17;6.60;;;;;;;14.90;88.93;95125.56;5034068;28;20187;-78
2022/10/26 01:53:54;;;;;;;12.87;6.03;;;;;;;14.88;89.13;95126.81;5023503;28;20191;-77
2022/10/26 01:56:24;;;;;;;15.60;5.97;;;;;;;14.90;89.20;95130.81;5033500;28;20195;-78
2022/10/26 01:59:26;;;;;;;21.97;6.57;;;;;;;14.78;89.29;95119.56;5033584;28;20614;-78
2022/10/26 02:02:31;;;;;;;17.40;6.50;;;;;;;14.80;89.53;95122.78;5027288;28;20297;-78
2022/10/26 02:05:10;;;;;;;13.57;6.60;;;;;;;14.80;89.12;95124.59;5033339;28;20194;-78
2022/10/26 02:07:42;;;;;;;18.83;6.87;;;;;;;14.77;89.60;95118.75;5032950;28;20187;-79
2022/10/26 02:10:24;;;;;;;15.87;6.13;;;;;;;14.69;89.70;95107.88;5033221;28;20191;-78
2022/10/26 02:12:59;;;;;;;13.97;6.50;;;;;;;14.78;90.31;95119.56;5033284;28;20198;-79
2022/10/26 02:15:34;;;;;;;13.13;6.50;;;;;;;14.77;89.97;95125.84;5030122;28;20182;-78
2022/10/26 02:18:07;;;;;;;23.03;7.50;;;;;;;14.61;90.57;95124.72;5031507;28;20614;-79
2022/10/26 02:20:39;;;;;;;15.47;6.73;;;;;;;14.70;90.63;95140.88;5024985;28;20214;-76
2022/10/26 02:23:08;;;;;;;18.40;7.40;;;;;;;14.64;91.06;95133.94;5032510;28;20195;-76
2022/10/26 02:25:40;;;;;;;24.63;8.47;;;;;;;14.48;90.97;95127.63;5030090;28;20770;-77
2022/10/26 02:28:10;;;;;;;18.63;8.30;;;;;;;14.47;91.81;95136.47;5032756;28;20207;-78
2022/10/26 02:30:40;;;;;;;20.93;8.40;;;;;;;14.41;92.11;95132.16;5032769;28;20195;-77
2022/10/26 02:33:11;;;;;;;22.43;8.00;;;;;;;14.32;92.98;95137.94;5032484;28;20221;-79
2022/10/26 02:35:41;;;;;;;17.17;8.60;;;;;;;14.32;93.46;95144.00;5032660;28;20187;-78
2022/10/26 02:38:11;;;;;;;14.27;8.40;;;;;;;14.27;93.79;95140.44;5032047;28;20221;-78
2022/10/26 02:40:39;;;;;;;17.93;8.40;;;;;;;14.29;93.58;95138.38;5032328;28;20229;-76
2022/10/26 02:43:08;;;;;;;21.27;8.43;;;;;;;14.21;93.15;95132.50;5031066;28;20235;-78
2022/10/26 02:45:38;;;;;;;18.63;8.67;;;;;;;14.23;93.61;95135.66;5032646;28;20241;-77
2022/10/26 02:48:06;;;;;;;23.73;8.60;;;;;;;14.22;93.91;95141.13;5032348;28;20241;-78
2022/10/26 02:50:41;;;;;;;15.70;8.43;;;;;;;14.15;94.54;95136.00;5031963;28;20198;-78
2022/10/26 02:53:16;;;;;;;18.10;8.20;;;;;;;14.11;94.61;95134.88;5032180;28;20194;-78
2022/10/26 02:55:48;;;;;;;17.23;8.40;;;;;;;14.08;93.95;95131.94;5032791;28;20183;-78
2022/10/26 02:58:19;;;;;;;14.90;8.23;;;;;;;14.03;94.54;95142.25;5032035;28;20249;-78
2022/10/26 03:00:46;;;;;;;14.47;8.70;;;;;;;13.95;94.98;95145.22;5032199;28;20214;-77
2022/10/26 03:03:13;;;;;;;17.87;8.00;;;;;;;13.90;95.90;95145.91;5032263;28;20198;-79
2022/10/26 03:05:43;;;;;;;20.70;9.10;;;;;;;13.78;95.79;95139.06;5032071;28;20200;-79
2022/10/26 03:08:10;;;;;;;20.97;8.73;;;;;;;13.86;95.54;95164.84;5031844;28;20218;-77
2022/10/26 03:10:41;;;;;;;20.27;8.80;;;;;;;13.78;95.95;95154.72;5031790;28;20607;-77
2022/10/26 03:13:10;;;;;;;19.13;9.20;;;;;;;13.69;96.52;95163.91;5031102;28;20558;-78
2022/10/26 03:15:37;;;;;;;22.37;9.27;;;;;;;13.65;96.74;95164.34;5031425;28;20638;-78
2022/10/26 03:18:05;;;;;;;20.50;9.50;;;;;;;13.63;96.65;95171.63;5031650;28;20616;-78
2022/10/26 03:20:32;;;;;;;19.83;9.57;;;;;;;13.48;97.09;95158.19;5031972;28;20215;-79
2022/10/26 03:23:00;;;;;;;25.80;10.23;;;;;;;13.43;98.75;95162.47;5031607;28;20183;-78
2022/10/26 03:25:27;;;;;;;23.43;11.00;;;;;;;13.38;99.82;95173.59;5031588;28;20256;-78
2022/10/26 03:27:58;;;;;;;17.57;10.63;;;;;;;13.38;100.00;95178.03;5031540;28;20187;-78
2022/10/26 03:30:25;;;;;;;20.60;10.30;;;;;;;13.38;99.81;95181.44;5031723;28;20202;-78
2022/10/26 03:32:51;;;;;;;27.13;11.20;;;;;;;13.29;99.60;95164.50;5031121;28;20681;-78
2022/10/26 03:35:18;;;;;;;20.73;12.13;;;;;;;13.33;100.00;95167.47;5031245;28;20202;-77
2022/10/26 03:37:45;;;;;;;29.20;14.10;;;;;;;13.37;100.00;95176.44;5030932;28;20198;-78
2022/10/26 03:40:14;;;;;;;21.27;11.83;;;;;;;13.39;100.00;95177.03;5028098;28;20205;-78
2022/10/26 03:42:41;;;;;;;24.40;12.20;;;;;;;13.26;100.00;95180.59;5030623;28;20308;-79
2022/10/26 03:45:09;;;;;;;20.70;12.30;;;;;;;13.16;100.00;95177.69;5031279;28;20206;-78
2022/10/26 03:47:43;;;;;;;22.47;10.87;;;;;;;13.06;100.00;95175.59;5031000;28;20619;-78
2022/10/26 03:50:10;;;;;;;24.63;10.47;;;;;;;13.13;100.00;95180.75;5031562;28;20199;-79
2022/10/26 03:52:37;;;;;;;22.77;10.93;;;;;;;13.27;100.00;95184.00;5031469;28;20272;-79
2022/10/26 03:55:04;;;;;;;22.33;11.10;;;;;;;13.30;100.00;95181.75;5031178;28;20191;-78
2022/10/26 03:57:33;;;;;;;25.60;11.20;;;;;;;13.32;100.00;95184.94;5031210;28;20206;-78
2022/10/26 04:00:00;;;;;;;21.13;10.17;;;;;;;13.30;100.00;95183.56;5031393;28;20191;-78
2022/10/26 04:02:26;;;;;;;19.60;9.63;;;;;;;13.30;100.00;95180.97;5031254;28;20587;-79
2022/10/26 04:04:53;;;;;;;18.00;9.17;;;;;;;13.41;100.00;95183.63;5017748;28;20617;-78
2022/10/26 04:07:20;;;;;;;20.17;9.77;;;;;;;13.41;100.00;95183.63;5031256;28;20246;-79
2022/10/26 04:09:47;;;;;;;19.77;11.23;;;;;;;13.43;100.00;95184.19;5030620;28;20202;-78
2022/10/26 04:12:13;;;;;;;22.13;11.13;;;;;;;13.43;100.00;95183.38;5029680;28;20270;-79
2022/10/26 04:14:42;;;;;;;21.23;11.40;;;;;;;13.42;100.00;95182.56;5031192;28;20199;-78
2022/10/26 04:17:08;;;;;;;19.30;9.47;;;;;;;13.36;100.00;95186.06;5030981;28;20665;-79
2022/10/26 04:19:35;;;;;;;22.03;9.17;;;;;;;13.33;100.00;95183.91;5030925;28;20572;-78
2022/10/26 04:22:02;;;;;;;21.13;9.20;;;;;;;13.36;100.00;95178.22;5030675;28;20223;-78
2022/10/26 04:24:29;;;;;;;19.43;9.30;;;;;;;13.42;100.00;95185.19;5033424;28;20190;-78
2022/10/26 04:26:55;;;;;;;20.93;9.63;;;;;;;13.39;100.00;95175.19;5035256;28;20597;-79
2022/10/26 04:29:22;;;;;;;18.43;9.43;;;;;;;13.43;100.00;95183.38;5034755;28;20592;-78
2022/10/26 04:31:50;;;;;;;16.77;9.33;;;;;;;13.41;100.00;95173.16;5034711;28;20194;-78
2022/10/26 04:34:19;;;;;;;16.80;8.73;;;;;;;13.42;100.00;95179.97;5035238;28;20195;-78
2022/10/26 04:36:46;;;;;;;17.93;8.63;;;;;;;13.51;100.00;95185.66;5034802;28;20220;-77
2022/10/26 04:39:13;;;;;;;21.33;9.07;;;;;;;13.50;100.00;95191.94;5029574;28;20202;-78
2022/10/26 04:41:39;;;;;;;19.93;9.50;;;;;;;13.30;100.00;95196.63;5034843;28;20689;-78
2022/10/26 04:44:06;;;;;;;18.93;9.10;;;;;;;13.24;100.00;95193.09;5034863;28;20230;-78
2022/10/26 04:46:33;;;;;;;18.30;8.47;;;;;;;13.20;100.00;95194.53;5032027;28;20553;-77
2022/10/26 04:49:01;;;;;;;14.50;8.23;;;;;;;13.19;100.00;95192.91;5034278;28;20617;-77
2022/10/26 04:51:28;;;;;;;15.07;8.03;;;;;;;13.39;100.00;95201.28;5033721;28;20187;-78
2022/10/26 04:53:56;;;;;;;19.90;7.97;;;;;;;13.34;100.00;95195.13;5034509;28;20197;-78
2022/10/26 04:56:23;;;;;;;16.50;8.23;;;;;;;13.32;100.00;95200.59;5034031;28;20206;-78
2022/10/26 04:58:49;;;;;;;22.40;9.63;;;;;;;13.33;100.00;95210.00;5034481;28;20554;-77
2022/10/26 05:01:18;;;;;;;19.20;9.63;;;;;;;13.34;100.00;95185.50;5034438;28;20225;-77
2022/10/26 05:03:49;;;;;;;22.43;10.87;;;;;;;13.48;100.00;95205.19;5033902;28;20260;-77
2022/10/26 05:06:17;;;;;;;25.83;11.93;;;;;;;13.49;100.00;95206.00;5031424;28;20190;-78
2022/10/26 05:08:44;;;;;;;22.13;11.37;;;;;;;13.50;100.00;95210.22;5033471;28;20202;-78
2022/10/26 05:11:11;;;;;;;23.40;10.93;;;;;;;13.56;100.00;95207.47;5033540;28;20218;-79
2022/10/26 05:13:38;;;;;;;25.00;11.27;;;;;;;13.49;100.00;95198.97;5033816;28;20203;-79
2022/10/26 05:16:05;;;;;;;21.20;12.40;;;;;;;13.46;100.00;95209.03;5033671;28;20206;-79
2022/10/26 05:18:32;;;;;;;28.90;10.17;;;;;;;13.50;100.00;95213.63;5034119;28;20579;-77
2022/10/26 05:20:59;;;;;;;24.17;10.83;;;;;;;13.48;100.00;95197.34;5034076;28;20218;-77
2022/10/26 05:23:27;;;;;;;22.00;11.40;;;;;;;13.53;100.00;95202.69;5033744;28;20202;-78
2022/10/26 05:25:55;;;;;;;17.03;9.93;;;;;;;13.60;100.00;95211.25;5028916;28;20187;-78
2022/10/26 05:28:22;;;;;;;22.57;9.93;;;;;;;13.66;100.00;95212.19;5034509;28;20215;-79
2022/10/26 05:30:49;;;;;;;21.13;9.97;;;;;;;13.63;100.00;95202.97;5033603;28;20708;-78
2022/10/26 05:33:16;;;;;;;27.77;12.63;;;;;;;13.64;100.00;95222.88;5033436;28;20265;-77
2022/10/26 05:35:42;;;;;;;25.73;12.27;;;;;;;13.72;100.00;95226.16;5032311;28;20211;-78
2022/10/26 05:38:10;;;;;;;22.80;11.87;;;;;;;13.74;100.00;95218.91;5032981;28;20198;-78
2022/10/26 05:40:38;;;;;;;34.13;12.33;;;;;;;13.77;100.00;95223.66;5033655;28;20198;-78
2022/10/26 05:43:06;;;;;;;23.60;11.00;;;;;;;13.79;100.00;95232.09;5029888;28;20233;-78
2022/10/26 05:45:32;;;;;;;27.37;11.77;;;;;;;13.82;100.00;95235.06;5032628;28;20206;-78
2022/10/26 05:47:59;;;;;;;24.03;11.27;;;;;;;13.87;100.00;95237.81;5033180;28;20237;-78
2022/10/26 05:50:26;;;;;;;20.30;11.23;;;;;;;13.86;100.00;95238.00;5032996;28;20195;-78
2022/10/26 05:52:54;;;;;;;23.03;10.37;;;;;;;13.81;100.00;95248.34;5032891;28;20191;-78
2022/10/26 05:55:21;;;;;;;20.87;10.17;;;;;;;13.73;100.00;95233.00;5033189;28;20210;-78
2022/10/26 05:57:50;;;;;;;20.27;10.63;;;;;;;13.80;100.00;95251.97;5033180;28;20589;-78
2022/10/26 06:00:20;;;;;;;17.87;10.30;;;;;;;13.88;100.00;95239.38;5033061;28;20194;-77
2022/10/26 06:03:07;;;;;;;21.03;10.80;;;;;;;13.92;100.00;95256.22;5033236;28;20230;-78
2022/10/26 06:05:42;;;;;;;19.20;9.70;;;;;;;13.71;100.00;95232.44;5022744;28;20199;-79
2022/10/26 06:08:10;;;;;;;23.37;9.73;;;;;;;13.75;100.00;95257.88;5033144;28;20629;-79
2022/10/26 06:10:38;;;;;;;20.73;9.13;;;;;;;13.72;100.00;95266.16;5033200;28;20194;-78
2022/10/26 06:13:07;;;;;;;23.43;9.07;;;;;;;13.76;100.00;95256.06;5032446;28;20190;-79
2022/10/26 06:15:54;;;;;;;21.10;9.97;;;;;;;13.89;100.00;95268.94;5030248;28;20207;-78
2022/10/26 06:18:34;;;;;;;17.70;9.10;;;;;;;13.99;100.00;95271.81;5030801;28;20654;-79
2022/10/26 06:21:12;;;;;;;14.37;9.20;;;;;;;14.06;100.00;95268.06;5032689;28;20229;-78
2022/10/26 06:23:49;;;;;;;16.10;8.80;;;;;;;14.11;100.00;95270.03;5032962;28;20194;-79
2022/10/26 06:26:30;;;;;;;11.87;7.70;;;;;;;14.19;100.00;95274.91;5033256;28;20187;-79
2022/10/26 06:29:10;;;;;;;15.03;7.40;;;;;;;14.13;100.00;95267.97;5030320;28;20190;-78
2022/10/26 06:31:37;;;;;;;14.57;7.43;;;;;;;14.05;100.00;95258.63;5033183;28;20273;-80
2022/10/26 06:34:04;;;;;;;16.23;7.63;;;;;;;14.14;100.00;95269.56;5032795;28;20195;-81
2022/10/26 06:36:32;;;;;;;12.50;7.40;;;;;;;14.19;100.00;95275.72;5032990;28;20196;-80
2022/10/26 06:39:03;;;;;;;23.73;7.90;;;;;;;14.26;100.00;95265.16;5033055;28;20195;-80
2022/10/26 06:41:32;;;;;;;14.33;7.13;;;;;;;14.43;100.00;95275.78;5033696;28;20621;-80
2022/10/26 06:44:02;;;;;;;17.37;7.93;;;;;;;14.43;100.00;95271.34;5033029;28;20230;-80
2022/10/26 06:46:36;;;;;;;16.70;7.43;;;;;;;14.44;100.00;95274.75;5032969;28;20654;-81
2022/10/26 06:49:13;;;;;;;14.57;7.57;;;;;;;14.40;100.00;95279.63;5014017;28;20222;-80
2022/10/26 06:51:57;;;;;;;19.23;7.17;;;;;;;14.41;100.00;95278.63;5025855;28;20186;-81
2022/10/26 06:54:31;;;;;;;10.87;6.80;;;;;;;14.51;100.00;95284.09;5032444;28;20195;-81
2022/10/26 06:56:59;;;;;;;11.77;6.60;;;;;;;14.55;100.00;95284.41;5032963;28;20187;-81
2022/10/26 06:59:36;;;;;;;13.23;6.93;;;;;;;14.61;100.00;95289.56;5032608;28;20195;-79
2022/10/26 07:02:03;;;;;;;12.97;6.63;;;;;;;14.65;100.00;95287.28;5031269;28;20215;-80
2022/10/26 07:04:30;;;;;;;12.37;6.40;;;;;;;14.68;100.00;95295.47;5032589;28;20203;-81
2022/10/26 07:06:57;;;;;;;12.37;6.43;;;;;;;14.64;100.00;95296.16;5032014;28;20257;-78
2022/10/26 07:09:24;;;;;;;13.93;7.03;;;;;;;14.66;100.00;95291.50;5031892;28;20191;-78
2022/10/26 07:11:50;;;;;;;15.87;7.20;;;;;;;14.72;99.89;95295.81;5031824;28;20606;-77
2022/10/26 07:14:17;;;;;;;13.90;6.80;;;;;;;14.68;99.97;95289.44;5031574;28;20598;-79
2022/10/26 07:16:45;;;;;;;14.40;7.90;;;;;;;14.72;100.00;95290.56;5031311;28;20210;-77
2022/10/26 07:19:12;;;;;;;17.50;8.00;;;;;;;14.76;100.00;95289.91;5031680;28;20199;-78
2022/10/26 07:21:39;;;;;;;16.50;8.33;;;;;;;14.77;100.00;95286.25;5031431;28;20218;-76
2022/10/26 07:24:06;;;;;;;13.93;7.07;;;;;;;14.76;100.00;95289.91;5031801;28;20217;-78
2022/10/26 07:26:33;;;;;;;14.23;6.73;;;;;;;14.82;100.00;95293.44;5028642;28;20669;-77
2022/10/26 07:29:00;;;;;;;12.40;7.60;;;;;;;14.80;100.00;95285.03;5032125;28;20597;-78
2022/10/26 07:31:27;;;;;;;13.00;6.53;;;;;;;14.80;99.79;95290.25;5032471;28;20206;-80
2022/10/26 07:33:55;;;;;;;12.63;6.27;;;;;;;14.83;99.90;95295.03;5037693;28;20302;-80
2022/10/26 07:36:22;;;;;;;16.03;7.77;;;;;;;14.87;100.00;95290.13;5040585;28;20195;-79
2022/10/26 07:38:51;;;;;;;13.00;7.77;;;;;;;14.93;100.00;95292.63;5040283;28;20217;-80
2022/10/26 07:41:18;;;;;;;17.17;7.23;;;;;;;14.98;100.00;95284.88;5040177;28;20191;-80
2022/10/26 07:43:46;;;;;;;13.07;6.93;;;;;;;15.09;100.00;95291.91;5036603;28;20235;-78
2022/10/26 07:46:14;;;;;;;13.53;7.07;;;;;;;15.10;99.69;95288.28;5036175;28;20662;-78
2022/10/26 07:48:42;;;;;;;14.53;7.00;;;;;;;15.13;99.72;95293.06;5032264;28;20210;-78
2022/10/26 07:51:10;;;;;;;11.20;7.20;;;;;;;15.18;99.15;95281.91;5031532;28;20678;-79
2022/10/26 07:53:36;;;;;;;14.07;7.37;;;;;;;15.25;99.42;95275.50;5031568;28;20198;-78
2022/10/26 07:56:03;;;;;;;17.93;7.90;;;;;;;15.44;98.60;95283.22;5032037;28;20256;-78
2022/10/26 07:58:30;;;;;;;11.00;6.30;;;;;;;15.61;96.52;95281.47;5031262;28;20204;-79
2022/10/26 08:00:57;;;;;;;14.80;7.13;;;;;;;15.60;96.24;95287.75;5032032;28;20213;-78
2022/10/26 08:03:24;;;;;;;15.13;6.37;;;;;;;15.56;96.70;95282.16;5031286;28;20227;-78
2022/10/26 08:05:54;;;;;;;21.50;6.93;;;;;;;15.53;97.05;95273.97;5031289;28;20198;-78
2022/10/26 08:08:22;;;;;;;8.87;5.53;;;;;;;15.60;96.10;95280.69;5031423;28;20214;-77
2022/10/26 08:10:51;;;;;;;14.30;6.13;;;;;;;15.72;94.78;95272.78;5031157;28;20642;-77
2022/10/26 08:13:18;;;;;;;12.87;6.07;;;;;;;15.74;94.12;95279.38;5028263;28;20191;-78
2022/10/26 08:15:44;;;;;;;15.77;5.67;;;;;;;15.80;94.03;95282.88;5031052;28;20226;-78
2022/10/26 08:18:11;;;;;;;12.23;5.73;;;;;;;15.88;93.70;95282.50;5030838;28;20190;-79
2022/10/26 08:20:38;;;;;;;10.10;5.17;;;;;;;15.95;93.20;95275.28;5031449;28;20207;-77
2022/10/26 08:23:05;;;;;;;14.70;5.30;;;;;;;16.08;91.43;95266.31;5031361;28;20246;-80
2022/10/26 08:25:33;;;;;;;9.27;5.57;;;;;;;16.14;91.53;95278.50;5031596;28;20259;-80
2022/10/26 08:28:02;;;;;;;6.90;4.60;;;;;;;16.17;91.24;95275.41;5031644;28;20218;-80
2022/10/26 08:30:29;;;;;;;8.83;5.00;;;;;;;16.21;90.72;95268.66;5031374;28;20738;-80
2022/10/26 08:33:00;;;;;;;10.47;4.73;;;;;;;16.24;89.32;95276.84;5031423;28;20672;-80
2022/10/26 08:35:27;;;;;;;8.67;4.60;;;;;;;16.33;89.27;95275.41;5031589;28;20199;-79
2022/10/26 08:37:54;;;;;;;7.90;5.27;;;;;;;16.30;89.21;95259.38;5022432;28;20199;-81
2022/10/26 08:40:25;;;;;;;9.43;5.03;;;;;;;16.45;88.77;95275.31;5031507;28;20232;-80
2022/10/26 08:43:00;;;;;;;14.27;4.80;;;;;;;16.52;87.83;95262.84;5028429;28;20235;-80
2022/10/26 08:45:31;;;;;;;7.37;4.40;;;;;;;16.82;85.12;95273.84;5031158;28;20198;-80
2022/10/26 08:48:02;;;;;;;9.60;4.90;;;;;;;17.13;83.97;95275.06;5031395;28;20202;-79
2022/10/26 08:50:33;;;;;;;10.43;4.90;;;;;;;17.56;82.11;95280.34;5031555;28;20233;-79
2022/10/26 08:53:03;;;;;;;9.43;4.47;;;;;;;18.05;80.71;95281.13;5031119;28;20194;-80
2022/10/26 08:55:39;;;;;;;7.55;4.93;;;;;;;18.65;76.50;95283.50;5031195;28;20759;-79
2022/10/26 08:58:15;;;;;;;13.15;4.78;;;;;;;19.32;74.26;95300.53;5031711;28;20190;-78
2022/10/26 09:00:43;;;;;;;9.45;5.70;;;;;;;19.89;70.31;95298.69;5029472;28;20215;-78
2022/10/26 09:03:14;;;;;;;8.65;4.60;;;;;;;20.46;68.24;95297.75;5030404;28;20227;-78
2022/10/26 09:05:56;;;;;;;9.43;3.78;;;;;;;20.70;66.16;95296.16;5030591;28;20211;-78
2022/10/26 09:08:35;;;;;;;8.60;3.63;;;;;;;20.93;63.56;95290.34;5026537;28;20191;-77
2022/10/26 09:11:12;;;;;;;6.97;3.92;;;;;;;21.51;61.57;95299.47;5033237;28;20195;-79
2022/10/26 09:13:53;;;;;;;7.60;3.67;;;;;;;22.02;58.94;95287.63;5032563;28;20222;-77
2022/10/26 09:16:30;;;;;;;7.07;3.10;;;;;;;22.54;57.15;95294.16;5032896;28;20672;-78
2022/10/26 09:19:11;;;;;;;5.07;3.45;;;;;;;23.13;55.82;95299.28;5032157;28;20195;-77
2022/10/26 09:21:45;;;;;;;8.45;4.22;;;;;;;23.68;53.83;95295.25;5031753;28;20190;-80
2022/10/26 09:24:15;;;;;;;9.25;3.40;;;;;;;24.17;52.88;95295.69;5033838;28;20221;-78
2022/10/26 09:26:54;;;;;;;7.53;3.42;;;;;;;24.66;50.12;95295.22;5034124;28;20286;-78
2022/10/26 09:29:26;;;;;;;8.75;3.30;;;;;;;24.52;48.53;95304.25;5034087;28;20222;-78
2022/10/26 09:31:56;;;;;;;5.53;2.90;;;;;;;24.96;47.16;95298.50;5034335;28;20183;-79
2022/10/26 09:34:31;;;;;;;3.05;2.50;;;;;;;25.33;44.80;95303.69;5033864;28;20195;-78
2022/10/26 09:36:58;;;;;;;6.10;2.80;;;;;;;25.61;44.56;95301.88;5031853;28;20541;-78
2022/10/26 09:39:35;;;;;;;7.47;3.05;;;;;;;26.09;43.34;95297.66;5033936;28;20214;-78
2022/10/26 09:42:14;;;;;;;6.45;3.08;;;;;;;26.57;42.15;95300.63;5032346;28;20195;-78
2022/10/26 09:44:49;;;;;;;3.85;2.58;;;;;;;26.63;41.17;95307.44;5029029;28;20226;-79
2022/10/26 09:47:29;;;;;;;3.42;2.58;;;;;;;27.13;39.05;95304.66;5031615;28;20615;-79
2022/10/26 09:50:01;;;;;;;5.63;2.10;;;;;;;27.36;37.46;95311.53;5031417;28;20202;-80
2022/10/26 09:52:28;;;;;;;8.48;2.50;;;;;;;27.51;38.57;95298.56;5033948;28;20187;-79
2022/10/26 09:54:55;;;;;;;8.85;2.92;;;;;;;27.54;38.46;95305.16;5033809;28;20194;-78
2022/10/26 09:57:22;;;;;;;5.70;2.45;;;;;;;28.28;37.99;95302.56;5033916;28;20195;-79
2022/10/26 09:59:51;;;;;;;7.10;2.78;;;;;;;28.84;35.94;95296.28;5033507;28;20199;-78
2022/10/26 10:02:38;;;;;;;5.50;2.72;;;;;;;29.14;35.65;95288.03;5033857;28;20241;-78
2022/10/26 10:05:30;;;;;;;4.65;2.45;;;;;;;29.50;34.93;95290.31;5027307;28;20588;-79
2022/10/26 10:08:18;;;;;;;6.70;2.80;;;;;;;29.10;35.34;95294.34;5031665;28;20199;-80
2022/10/26 10:10:59;;;;;;;4.70;2.90;;;;;;;29.44;34.50;95285.47;5027547;28;20617;-78
2022/10/26 10:13:29;;;;;;;7.10;2.80;;;;;;;29.03;35.34;95288.69;5033491;28;20691;-78
2022/10/26 10:16:03;;;;;;;7.53;2.90;;;;;;;29.49;35.50;95287.97;5031045;28;20198;-79
2022/10/26 10:18:30;;;;;;;7.72;3.03;;;;;;;28.91;34.63;95283.22;5033268;28;20206;-79
2022/10/26 10:20:59;;;;;;;8.10;2.72;;;;;;;28.22;35.65;95279.75;5033490;28;20650;-78
2022/10/26 10:23:29;;;;;;;6.10;2.70;;;;;;;27.93;35.79;95277.63;5033300;28;20225;-78
2022/10/26 10:26:05;;;;;;;5.47;2.65;;;;;;;27.94;36.88;95281.88;5027883;28;20719;-78
2022/10/26 10:28:33;;;;;;;5.20;2.45;;;;;;;28.20;35.71;95272.03;5031824;28;20538;-77
2022/10/26 10:31:03;;;;;;;8.35;3.15;;;;;;;28.69;35.46;95268.91;5032836;28;20191;-77
2022/10/26 10:33:35;;;;;;;8.98;3.10;;;;;;;28.81;35.39;95267.47;5032575;28;20195;-79
2022/10/26 10:36:06;;;;;;;7.72;2.90;;;;;;;29.42;35.18;95268.91;5030446;28;20186;-77
2022/10/26 10:38:38;;;;;;;7.55;2.80;;;;;;;30.09;33.78;95272.38;5033612;28;20187;-79
2022/10/26 10:41:06;;;;;;;10.80;4.00;;;;;;;30.40;32.86;95269.31;5033067;28;20187;-80
2022/10/26 10:43:33;;;;;;;8.63;2.75;;;;;;;30.77;31.64;95265.69;5025362;28;20235;-79
2022/10/26 10:46:01;;;;;;;6.07;2.60;;;;;;;30.80;31.52;95262.31;5032879;28;20187;-79
2022/10/26 10:48:29;;;;;;;6.80;2.40;;;;;;;30.64;30.96;95263.28;5032999;28;20650;-80
2022/10/26 10:50:59;;;;;;;6.85;2.30;;;;;;;30.35;32.14;95261.44;5033078;28;20203;-79
2022/10/26 10:53:32;;;;;;;4.75;2.40;;;;;;;30.70;31.93;95264.66;5032922;28;20194;-80
2022/10/26 10:56:14;;;;;;;6.88;2.42;;;;;;;30.97;31.38;95257.94;5032626;28;20661;-79
2022/10/26 10:58:52;;;;;;;5.05;2.28;;;;;;;31.08;30.61;95272.53;5032756;28;20183;-80
2022/10/26 11:01:22;;;;;;;5.35;2.85;;;;;;;30.96;31.11;95261.75;5032653;28;20186;-79
2022/10/26 11:04:16;;;;;;;5.82;2.30;;;;;;;31.17;29.82;95260.53;5032588;28;20300;-79
2022/10/26 11:06:45;;;;;;;5.40;2.55;;;;;;;31.48;30.35;95252.00;5027127;28;20253;-79
2022/10/26 11:09:15;;;;;;;7.80;2.28;;;;;;;31.93;29.81;95251.88;5032430;28;20195;-79
2022/10/26 11:11:47;;;;;;;5.90;2.50;;;;;;;31.45;28.57;95255.34;5032492;28;20279;-80
2022/10/26 11:14:18;;;;;;;4.90;2.25;;;;;;;31.16;29.55;95250.16;5024176;28;20195;-79
2022/10/26 11:16:50;;;;;;;3.72;2.75;;;;;;;30.76;29.95;95248.00;5024613;28;20198;-79
2022/10/26 11:19:20;;;;;;;2.80;2.00;;;;;;;29.87;31.10;95251.19;5032126;28;20186;-79
2022/10/26 11:21:52;;;;;;;3.67;2.08;;;;;;;29.30;32.01;95250.81;5027490;28;20218;-79
2022/10/26 11:24:25;;;;;;;2.38;2.03;;;;;;;29.83;31.74;95252.16;5032146;28;20280;-79
2022/10/26 11:26:57;;;;;;;4.63;2.10;;;;;;;30.53;30.59;95251.38;5032182;28;20191;-78
2022/10/26 11:29:39;;;;;;;3.95;1.88;;;;;;;31.18;28.97;95246.00;5032023;28;20198;-78
2022/10/26 11:32:15;;;;;;;4.95;2.00;;;;;;;31.59;28.94;95244.28;5029943;28;20194;-79
2022/10/26 11:34:47;;;;;;;3.25;2.10;;;;;;;31.75;27.59;95253.22;5028526;28;20213;-78
2022/10/26 11:37:22;;;;;;;2.28;1.90;;;;;;;31.35;28.02;95250.38;5032266;28;20187;-78
2022/10/26 11:40:02;;;;;;;4.13;1.65;;;;;;;31.41;27.67;95247.16;5029897;28;20671;-79